createdAt,value
2023-02-17T00:02:36.447Z,55.95
2023-02-17T00:07:39.538Z,63.00
2023-02-17T00:12:41.723Z,65.43
2023-02-17T00:17:43.816Z,59.53
2023-02-17T00:22:46.070Z,52.35
2023-02-17T00:27:48.176Z,48.33
2023-02-17T00:32:50.347Z,53.42
2023-02-17T00:37:52.484Z,50.15
2023-02-17T00:42:55.218Z,57.70
2023-02-17T00:47:57.368Z,57.28
2023-02-17T00:52:59.484Z,51.90
2023-02-17T00:58:01.878Z,52.45
2023-02-17T01:03:04.438Z,57.58
2023-02-17T01:08:06.686Z,53.08
2023-02-17T01:13:09.671Z,53.70
2023-02-17T01:18:12.278Z,52.00
2023-02-17T01:23:15.518Z,50.30
2023-02-17T01:28:21.568Z,50.63
2023-02-17T01:33:23.789Z,46.25
2023-02-17T01:38:25.913Z,54.40
2023-02-17T01:43:28.920Z,47.30
2023-02-17T01:48:41.105Z,47.97
2023-02-17T01:54:12.506Z,47.92
2023-02-17T01:59:22.555Z,46.97
2023-02-17T02:04:28.920Z,47.40
2023-02-17T02:09:39.108Z,50.58
2023-02-17T02:14:41.347Z,49.05
2023-02-17T02:20:01.964Z,49.85
2023-02-17T02:25:22.285Z,49.22
2023-02-17T02:30:27.176Z,35.53
2023-02-17T02:35:47.178Z,47.83
2023-02-17T02:41:07.581Z,57.87
2023-02-17T02:46:10.159Z,46.60
2023-02-17T02:51:15.173Z,47.03
2023-02-17T02:56:37.004Z,48.20
2023-02-17T03:01:45.789Z,44.33
2023-02-17T03:07:00.650Z,38.55
2023-02-17T03:12:03.365Z,47.40
2023-02-17T03:17:05.972Z,40.65
2023-02-17T03:22:15.968Z,41.63
2023-02-17T03:27:18.222Z,38.08
2023-02-17T03:32:20.827Z,44.03
2023-02-17T03:37:23.003Z,38.40
2023-02-17T03:42:26.100Z,42.13
2023-02-17T03:47:28.302Z,38.70
2023-02-17T03:52:30.563Z,42.95
2023-02-17T03:57:33.986Z,43.75
2023-02-17T04:02:36.657Z,38.72
2023-02-17T04:07:38.976Z,38.40
2023-02-17T04:12:41.444Z,45.38
2023-02-17T04:17:43.645Z,48.72
2023-02-17T04:22:46.641Z,50.83
2023-02-17T04:27:48.862Z,57.50
2023-02-17T04:32:51.011Z,44.10
2023-02-17T04:37:54.139Z,42.63
2023-02-17T04:42:56.250Z,61.00
2023-02-17T04:47:58.587Z,58.67
2023-02-17T04:53:00.886Z,52.03
2023-02-17T04:58:03.231Z,83.25
2023-02-17T05:03:05.439Z,79.88
2023-02-17T05:08:07.643Z,72.07
2023-02-17T05:13:10.000Z,73.28
2023-02-17T05:18:14.050Z,58.92
2023-02-17T05:23:16.190Z,69.95
2023-02-17T05:28:18.854Z,69.20
2023-02-17T05:33:21.036Z,63.95
2023-02-17T05:38:23.298Z,71.10
2023-02-17T05:43:25.676Z,70.30
2023-02-17T05:48:28.091Z,83.78
2023-02-17T05:53:30.570Z,82.18
2023-02-17T05:58:32.752Z,80.75
2023-02-17T06:03:35.098Z,92.13
2023-02-17T06:08:37.949Z,90.20
2023-02-17T06:13:40.319Z,77.65
2023-02-17T06:18:42.907Z,78.80
2023-02-17T06:23:45.494Z,83.00
2023-02-17T06:28:47.716Z,89.53
2023-02-17T06:33:49.923Z,89.10
2023-02-17T06:38:52.303Z,95.72
2023-02-17T06:43:54.546Z,81.35
2023-02-17T06:48:56.966Z,82.30
2023-02-17T06:53:59.134Z,81.88
2023-02-17T06:59:02.044Z,85.65
2023-02-17T07:04:04.333Z,83.35
2023-02-17T07:09:06.654Z,83.10
2023-02-17T07:14:08.816Z,82.97
2023-02-17T07:19:10.947Z,80.88
2023-02-17T07:24:13.616Z,64.90
2023-02-17T07:29:19.388Z,57.47
2023-02-17T07:34:21.825Z,52.10
2023-02-17T07:39:24.018Z,53.22
2023-02-17T07:44:26.190Z,54.28
2023-02-17T07:49:28.747Z,54.65
2023-02-17T07:54:30.953Z,54.20
2023-02-17T07:59:33.353Z,53.40
2023-02-17T08:04:35.688Z,54.92
2023-02-17T08:09:56.384Z,58.38
2023-02-17T08:20:07.971Z,54.25
2023-02-17T08:25:10.838Z,60.72
2023-02-17T08:30:13.478Z,52.10
2023-02-17T08:35:16.101Z,57.65
2023-02-17T08:40:19.578Z,55.40
2023-02-17T08:45:21.943Z,54.00
2023-02-17T08:50:24.402Z,56.03
2023-02-17T08:55:26.728Z,53.67
2023-02-17T09:00:29.110Z,48.38
2023-02-17T09:05:32.736Z,50.90
2023-02-17T09:10:34.986Z,51.40
2023-02-17T09:15:37.744Z,47.88
2023-02-17T09:20:40.121Z,50.95
2023-02-17T09:25:42.638Z,48.92
2023-02-17T09:30:45.036Z,49.20
2023-02-17T09:35:47.381Z,50.78
2023-02-17T09:40:50.963Z,49.17
2023-02-17T09:46:08.314Z,49.33
2023-02-17T09:51:20.555Z,48.35
2023-02-17T09:56:41.456Z,46.95
2023-02-17T10:01:45.385Z,37.38
2023-02-17T10:06:57.986Z,43.38
2023-02-17T10:12:14.546Z,60.38
2023-02-17T10:17:23.977Z,52.63
2023-02-17T10:22:27.558Z,53.95
2023-02-17T10:27:43.052Z,56.85
2023-02-17T10:33:10.420Z,54.53
2023-02-17T10:38:21.706Z,57.83
2023-02-17T10:43:30.291Z,63.22
2023-02-17T10:48:48.467Z,64.10
2023-02-17T10:54:02.072Z,61.28
2023-02-17T10:59:28.769Z,61.25
2023-02-17T11:04:42.684Z,49.78
2023-02-17T11:09:54.446Z,54.20
2023-02-17T11:14:57.285Z,57.33
2023-02-17T11:20:27.197Z,43.47
2023-02-17T11:25:32.784Z,50.42
2023-02-17T11:30:36.882Z,49.80
2023-02-17T11:35:51.629Z,60.08
2023-02-17T11:40:55.063Z,58.78
2023-02-17T11:46:23.651Z,66.85
2023-02-17T11:52:04.004Z,52.40
2023-02-17T11:57:15.372Z,40.67
2023-02-17T12:02:21.616Z,31.95
2023-02-17T12:07:55.565Z,31.65
2023-02-17T12:13:15.952Z,31.15
2023-02-17T12:18:27.038Z,34.53
2023-02-17T12:23:49.397Z,35.25
2023-02-17T12:29:08.279Z,36.55
2023-02-17T12:34:13.276Z,37.67
2023-02-17T12:39:48.458Z,40.97
2023-02-17T12:44:56.179Z,44.70
2023-02-17T12:50:16.337Z,38.47
2023-02-17T12:55:26.103Z,43.00
2023-02-17T13:05:39.696Z,41.97
2023-02-17T13:10:42.102Z,30.92
2023-02-17T13:15:46.937Z,28.60
2023-02-17T13:20:58.222Z,29.65
2023-02-17T13:26:20.994Z,27.98
2023-02-17T13:31:27.486Z,27.75
2023-02-17T13:36:29.650Z,22.55
2023-02-17T13:41:48.996Z,22.02
2023-02-17T13:46:52.334Z,21.02
2023-02-17T13:51:55.763Z,21.88
2023-02-17T13:56:58.300Z,20.92
2023-02-17T14:02:00.712Z,21.10
2023-02-17T14:07:05.517Z,18.55
2023-02-17T14:12:17.462Z,22.42
2023-02-17T14:17:33.259Z,17.23
2023-02-17T14:22:38.028Z,14.40
2023-02-17T14:27:50.476Z,16.27
2023-02-17T14:33:02.075Z,14.25
2023-02-17T14:38:22.404Z,14.77
2023-02-17T14:43:25.244Z,15.68
2023-02-17T14:48:28.157Z,18.30
2023-02-17T14:53:33.575Z,17.42
2023-02-17T14:58:36.247Z,16.98
2023-02-17T15:03:38.447Z,14.73
2023-02-17T15:08:41.095Z,19.20
2023-02-17T15:13:43.213Z,15.35
2023-02-17T15:18:48.221Z,22.17
2023-02-17T15:23:50.602Z,15.90
2023-02-17T15:28:53.085Z,16.83
2023-02-17T15:34:00.214Z,18.02
2023-02-17T15:39:02.502Z,24.98
2023-02-17T15:44:06.324Z,20.85
2023-02-17T15:49:11.763Z,30.63
2023-02-17T15:54:15.907Z,38.35
2023-02-17T15:59:27.204Z,31.40
2023-02-17T16:04:29.533Z,26.85
2023-02-17T16:09:31.830Z,31.75
2023-02-17T16:14:36.766Z,26.63
2023-02-17T16:19:38.945Z,28.27
2023-02-17T16:24:41.309Z,34.55
2023-02-17T16:29:43.739Z,35.40
2023-02-17T16:34:45.976Z,36.60
2023-02-17T16:39:48.110Z,47.30
2023-02-17T16:44:50.699Z,31.25
2023-02-17T16:49:53.186Z,43.25
2023-02-17T16:54:55.404Z,53.72
2023-02-17T16:59:57.685Z,55.38
2023-02-17T17:04:59.811Z,39.85
2023-02-17T17:10:15.836Z,37.50
2023-02-17T17:15:20.186Z,44.88
2023-02-17T17:20:30.322Z,51.22
2023-02-17T17:25:35.145Z,50.25
2023-02-17T17:30:37.682Z,70.60
2023-02-17T17:35:39.974Z,58.30
2023-02-17T17:40:50.873Z,57.08
2023-02-17T17:45:53.421Z,70.63
2023-02-17T17:50:55.607Z,57.90
2023-02-17T17:55:57.962Z,57.13
2023-02-17T18:01:02.048Z,51.47
2023-02-17T18:06:05.880Z,55.95
2023-02-17T18:11:09.074Z,60.45
2023-02-17T18:16:11.560Z,57.72
2023-02-17T18:21:14.073Z,59.40
2023-02-17T18:26:17.058Z,67.03
2023-02-17T18:31:20.008Z,68.45
2023-02-17T18:36:25.661Z,72.80
2023-02-17T18:41:33.214Z,82.18
2023-02-17T18:46:36.385Z,79.75
2023-02-17T18:51:38.686Z,73.05
2023-02-17T18:56:40.897Z,84.65
2023-02-17T19:01:43.634Z,85.53
2023-02-17T19:06:45.959Z,74.22
2023-02-17T19:11:48.200Z,74.68
2023-02-17T19:16:50.356Z,77.65
2023-02-17T19:21:53.483Z,81.07
2023-02-17T19:26:55.827Z,76.40
2023-02-17T19:32:03.021Z,69.50
2023-02-17T19:37:05.812Z,74.05
2023-02-17T19:42:09.579Z,69.53
2023-02-17T19:47:11.851Z,62.35
2023-02-17T19:52:14.053Z,72.03
2023-02-17T19:57:19.520Z,78.68
2023-02-17T20:02:21.785Z,68.80
2023-02-17T20:07:23.914Z,72.25
2023-02-17T20:12:26.107Z,66.00
2023-02-17T20:17:28.272Z,70.85
2023-02-17T20:22:30.475Z,52.83
2023-02-17T20:27:32.853Z,60.80
2023-02-17T20:32:35.120Z,63.75
2023-02-17T20:37:37.330Z,79.68
2023-02-17T20:42:39.463Z,86.60
2023-02-17T20:47:41.656Z,79.40
2023-02-17T20:52:46.336Z,74.03
2023-02-17T20:57:48.645Z,86.32
2023-02-17T21:02:52.745Z,67.97
2023-02-17T21:07:56.878Z,71.15
2023-02-17T21:12:59.540Z,79.35
2023-02-17T21:18:02.083Z,74.10
2023-02-17T21:28:21.041Z,64.90
2023-02-17T21:33:23.594Z,55.28
2023-02-17T21:38:25.810Z,55.33
2023-02-17T21:43:46.700Z,70.63
2023-02-17T21:48:53.478Z,79.47
2023-02-17T21:53:56.080Z,74.70
2023-02-17T21:58:58.298Z,62.88
2023-02-17T22:04:01.562Z,63.83
2023-02-17T22:09:07.302Z,60.55
2023-02-17T22:14:16.071Z,60.80
2023-02-17T22:19:21.056Z,58.55
2023-02-17T22:24:27.418Z,61.38
2023-02-17T22:29:29.678Z,59.58
2023-02-17T22:34:32.042Z,58.50
2023-02-17T22:39:34.324Z,66.13
2023-02-17T22:44:36.970Z,75.43
2023-02-17T22:49:39.191Z,97.20
2023-02-17T22:54:41.441Z,79.13
2023-02-17T22:59:43.666Z,77.05
2023-02-17T23:04:46.039Z,70.75
2023-02-17T23:09:48.315Z,85.47
2023-02-17T23:14:50.529Z,71.80
2023-02-17T23:19:52.771Z,67.13
2023-02-17T23:24:54.945Z,73.93
2023-02-17T23:29:57.749Z,59.78
2023-02-17T23:35:00.036Z,59.22
2023-02-17T23:40:02.586Z,55.75
2023-02-17T23:45:05.290Z,59.80
2023-02-17T23:50:08.371Z,66.80
2023-02-17T23:55:10.790Z,74.57
